createdAt,value
2023-01-06T00:01:28.565Z,81.69
2023-01-06T00:03:58.690Z,81.98
2023-01-06T00:06:30.411Z,81.95
2023-01-06T00:09:02.004Z,82.11
2023-01-06T00:11:30.457Z,82.12
2023-01-06T00:13:59.246Z,82.03
2023-01-06T00:16:27.105Z,81.92
2023-01-06T00:18:57.054Z,81.64
2023-01-06T00:21:25.504Z,81.96
2023-01-06T00:23:53.378Z,81.75
2023-01-06T00:26:21.151Z,81.75
2023-01-06T00:28:55.109Z,81.73
2023-01-06T00:31:23.257Z,81.14
2023-01-06T00:33:50.755Z,81.28
2023-01-06T00:36:18.312Z,80.81
2023-01-06T00:38:48.123Z,80.58
2023-01-06T00:41:34.392Z,80.65
2023-01-06T00:44:02.526Z,80.43
2023-01-06T00:46:31.437Z,80.75
2023-01-06T00:49:06.354Z,80.89
2023-01-06T00:51:31.869Z,80.55
2023-01-06T00:54:00.546Z,80.58
2023-01-06T00:56:29.616Z,80.58
2023-01-06T00:58:57.327Z,80.98
2023-01-06T01:01:25.226Z,81.35
2023-01-06T01:03:53.016Z,81.09
2023-01-06T01:06:20.911Z,81.33
2023-01-06T01:08:55.512Z,81.29
2023-01-06T01:11:42.884Z,81.07
2023-01-06T01:14:12.610Z,81.09
2023-01-06T01:16:41.027Z,80.38
2023-01-06T01:19:10.138Z,80.45
2023-01-06T01:21:38.538Z,79.93
2023-01-06T01:24:06.823Z,79.82
2023-01-06T01:26:35.308Z,79.58
2023-01-06T01:29:03.097Z,79.57
2023-01-06T01:31:31.149Z,78.62
2023-01-06T01:34:00.487Z,78.51
2023-01-06T01:36:28.148Z,78.42
2023-01-06T01:38:57.561Z,78.60
2023-01-06T01:41:26.940Z,78.27
2023-01-06T01:44:02.687Z,78.28
2023-01-06T01:46:41.037Z,78.76
2023-01-06T01:49:20.160Z,78.37
2023-01-06T01:51:51.209Z,78.27
2023-01-06T01:54:25.287Z,77.53
2023-01-06T01:57:07.262Z,77.90
2023-01-06T01:59:42.139Z,77.85
2023-01-06T02:02:16.203Z,78.05
2023-01-06T02:04:52.745Z,77.71
2023-01-06T02:07:23.753Z,77.71
2023-01-06T02:10:14.243Z,77.59
2023-01-06T02:12:52.585Z,77.36
2023-01-06T02:15:31.234Z,77.59
2023-01-06T02:18:27.207Z,77.74
2023-01-06T02:21:15.009Z,77.38
2023-01-06T02:24:03.731Z,76.59
2023-01-06T02:27:10.358Z,76.63
2023-01-06T02:30:08.380Z,76.70
2023-01-06T02:33:07.639Z,77.01
2023-01-06T02:35:46.570Z,76.78
2023-01-06T02:38:37.333Z,76.57
2023-01-06T02:41:14.037Z,76.61
2023-01-06T02:44:01.746Z,76.79
2023-01-06T02:47:08.481Z,76.86
2023-01-06T02:50:02.474Z,77.00
2023-01-06T02:53:03.113Z,77.67
2023-01-06T02:55:47.519Z,78.11
2023-01-06T02:58:20.993Z,78.87
2023-01-06T03:01:06.546Z,78.81
2023-01-06T03:03:44.454Z,78.88
2023-01-06T03:06:29.035Z,79.28
2023-01-06T03:09:08.370Z,79.33
2023-01-06T03:11:51.560Z,79.44
2023-01-06T03:14:29.760Z,79.59
2023-01-06T03:17:07.493Z,79.42
2023-01-06T03:19:50.425Z,79.49
2023-01-06T03:22:27.361Z,79.57
2023-01-06T03:24:55.087Z,79.61
2023-01-06T03:27:26.336Z,79.48
2023-01-06T03:29:54.699Z,79.54
2023-01-06T03:32:35.437Z,79.59
2023-01-06T03:35:14.869Z,79.64
2023-01-06T03:37:53.304Z,79.61
2023-01-06T03:40:59.964Z,79.42
2023-01-06T03:44:00.153Z,79.44
2023-01-06T03:46:38.618Z,79.32
2023-01-06T03:49:15.358Z,79.34
2023-01-06T03:52:01.051Z,78.66
2023-01-06T03:54:58.432Z,79.09
2023-01-06T03:57:34.691Z,78.53
2023-01-06T04:00:11.613Z,78.75
2023-01-06T04:02:46.497Z,78.70
2023-01-06T04:05:23.511Z,78.42
2023-01-06T04:07:52.025Z,78.32
2023-01-06T04:10:22.352Z,78.24
2023-01-06T04:12:52.123Z,78.21
2023-01-06T04:15:25.092Z,78.02
2023-01-06T04:17:54.078Z,77.51
2023-01-06T04:20:26.072Z,77.17
2023-01-06T04:22:57.890Z,77.10
2023-01-06T04:25:26.061Z,76.92
2023-01-06T04:27:53.941Z,77.19
2023-01-06T04:30:22.058Z,77.05
2023-01-06T04:32:52.752Z,77.22
2023-01-06T04:35:20.621Z,77.37
2023-01-06T04:37:48.685Z,77.25
2023-01-06T04:40:16.340Z,77.25
2023-01-06T04:43:02.513Z,77.24
2023-01-06T04:45:30.350Z,77.37
2023-01-06T04:47:57.804Z,77.40
2023-01-06T04:50:25.386Z,77.56
2023-01-06T04:52:52.757Z,77.75
2023-01-06T04:55:20.361Z,77.69
2023-01-06T04:57:47.786Z,77.97
2023-01-06T05:00:16.630Z,78.10
2023-01-06T05:02:45.121Z,78.38
2023-01-06T05:05:14.368Z,78.57
2023-01-06T05:07:42.078Z,78.58
2023-01-06T05:10:10.689Z,78.51
2023-01-06T05:12:38.334Z,78.33
2023-01-06T05:15:07.508Z,78.20
2023-01-06T05:17:35.200Z,77.76
2023-01-06T05:20:02.923Z,77.30
2023-01-06T05:22:30.506Z,77.20
2023-01-06T05:24:58.112Z,76.94
2023-01-06T05:27:25.520Z,77.10
2023-01-06T05:29:53.304Z,77.25
2023-01-06T05:32:20.886Z,77.16
2023-01-06T05:34:48.464Z,76.89
2023-01-06T05:37:16.417Z,76.98
2023-01-06T05:39:44.132Z,76.49
2023-01-06T05:42:11.825Z,76.49
2023-01-06T05:44:39.520Z,76.25
2023-01-06T05:47:06.983Z,76.17
2023-01-06T05:49:34.451Z,76.17
2023-01-06T05:52:02.293Z,76.33
2023-01-06T05:54:30.030Z,75.96
2023-01-06T05:56:57.826Z,75.93
2023-01-06T05:59:25.640Z,75.95
2023-01-06T06:01:53.428Z,76.00
2023-01-06T06:04:20.815Z,76.00
2023-01-06T06:06:48.532Z,76.05
2023-01-06T06:09:16.363Z,75.87
2023-01-06T06:11:43.936Z,76.22
2023-01-06T06:14:11.594Z,75.64
2023-01-06T06:16:39.136Z,74.90
2023-01-06T06:19:06.462Z,74.80
2023-01-06T06:21:34.587Z,74.43
2023-01-06T06:24:01.992Z,73.38
2023-01-06T06:26:29.553Z,73.64
2023-01-06T06:28:57.206Z,73.37
2023-01-06T06:31:28.983Z,73.33
2023-01-06T06:34:02.513Z,73.13
2023-01-06T06:36:31.262Z,73.42
2023-01-06T06:38:59.809Z,73.36
2023-01-06T06:41:27.368Z,73.63
2023-01-06T06:43:54.948Z,73.48
2023-01-06T06:46:22.952Z,73.15
2023-01-06T06:48:50.998Z,72.30
2023-01-06T06:51:20.817Z,72.82
2023-01-06T06:53:49.542Z,72.12
2023-01-06T06:56:19.881Z,71.99
2023-01-06T06:58:47.836Z,72.25
2023-01-06T07:01:19.044Z,72.25
2023-01-06T07:03:47.693Z,71.77
2023-01-06T07:06:22.711Z,71.79
2023-01-06T07:08:51.416Z,70.54
2023-01-06T07:11:19.788Z,71.78
2023-01-06T07:13:47.887Z,71.41
2023-01-06T07:16:15.645Z,71.08
2023-01-06T07:18:43.332Z,70.37
2023-01-06T07:21:11.182Z,70.02
2023-01-06T07:23:38.848Z,71.12
2023-01-06T07:26:06.404Z,69.73
2023-01-06T07:28:34.070Z,70.09
2023-01-06T07:31:02.044Z,70.40
2023-01-06T07:33:29.678Z,69.35
2023-01-06T07:35:57.661Z,70.37
2023-01-06T07:38:26.089Z,69.53
2023-01-06T07:40:59.226Z,69.89
2023-01-06T07:43:26.992Z,69.33
2023-01-06T07:45:54.624Z,70.08
2023-01-06T07:48:22.493Z,69.29
2023-01-06T07:50:50.188Z,69.10
2023-01-06T07:53:17.774Z,69.18
2023-01-06T07:55:54.232Z,68.51
2023-01-06T07:58:25.409Z,68.50
2023-01-06T08:00:53.166Z,68.55
2023-01-06T08:03:20.824Z,68.27
2023-01-06T08:05:48.480Z,67.94
2023-01-06T08:08:16.614Z,68.61
2023-01-06T08:10:44.463Z,67.97
2023-01-06T08:13:11.909Z,67.76
2023-01-06T08:15:40.210Z,67.19
2023-01-06T08:18:08.023Z,67.33
2023-01-06T08:20:35.704Z,66.87
2023-01-06T08:23:03.520Z,66.69
2023-01-06T08:25:31.428Z,66.98
2023-01-06T08:27:59.835Z,67.08
2023-01-06T08:30:28.188Z,65.82
2023-01-06T08:33:00.073Z,66.53
2023-01-06T08:35:27.779Z,66.98
2023-01-06T08:37:55.621Z,66.73
2023-01-06T08:40:23.521Z,67.49
2023-01-06T08:42:51.394Z,67.68
2023-01-06T08:45:21.776Z,66.79
2023-01-06T08:47:49.379Z,66.81
2023-01-06T08:50:17.279Z,66.39
2023-01-06T08:52:44.996Z,67.38
2023-01-06T08:55:12.466Z,67.03
2023-01-06T08:57:40.089Z,66.94
2023-01-06T09:00:09.453Z,67.57
2023-01-06T09:02:37.269Z,66.34
2023-01-06T09:05:05.958Z,65.80
2023-01-06T09:07:33.910Z,66.74
2023-01-06T09:10:01.504Z,66.54
2023-01-06T09:12:29.099Z,66.29
2023-01-06T09:14:56.898Z,66.75
2023-01-06T09:17:24.664Z,65.87
2023-01-06T09:19:52.354Z,65.48
2023-01-06T09:22:19.969Z,64.81
2023-01-06T09:24:47.660Z,64.07
2023-01-06T09:27:15.433Z,64.13
2023-01-06T09:29:43.013Z,65.41
2023-01-06T09:32:10.972Z,62.15
2023-01-06T09:34:38.635Z,64.48
2023-01-06T09:37:06.206Z,62.50
2023-01-06T09:39:34.001Z,63.73
2023-01-06T09:42:40.685Z,63.88
2023-01-06T09:45:18.946Z,62.18
2023-01-06T09:47:53.890Z,64.02
2023-01-06T09:50:44.344Z,63.12
2023-01-06T09:53:17.396Z,62.86
2023-01-06T09:55:57.255Z,61.84
2023-01-06T09:58:30.343Z,61.31
2023-01-06T10:01:02.930Z,61.20
2023-01-06T10:03:30.971Z,61.96
2023-01-06T10:06:44.178Z,61.69
2023-01-06T10:09:35.467Z,62.46
2023-01-06T10:12:31.097Z,62.95
2023-01-06T10:15:23.755Z,63.07
2023-01-06T10:18:05.679Z,62.77
2023-01-06T10:21:11.050Z,60.33
2023-01-06T10:24:18.177Z,62.16
2023-01-06T10:26:58.806Z,63.29
2023-01-06T10:29:33.870Z,63.75
2023-01-06T10:32:03.700Z,61.77
2023-01-06T10:34:35.339Z,62.57
2023-01-06T10:37:32.720Z,61.60
2023-01-06T10:40:25.050Z,62.85
2023-01-06T10:43:02.942Z,62.11
2023-01-06T10:45:41.033Z,62.67
2023-01-06T10:48:16.619Z,63.65
2023-01-06T10:50:44.249Z,63.31
2023-01-06T10:53:13.258Z,63.10
2023-01-06T10:55:52.091Z,64.27
2023-01-06T10:58:44.528Z,64.36
2023-01-06T11:01:25.003Z,63.35
2023-01-06T11:04:13.054Z,64.01
2023-01-06T11:06:59.681Z,64.06
2023-01-06T11:09:40.422Z,63.63
2023-01-06T11:12:20.010Z,64.12
2023-01-06T11:14:59.148Z,63.40
2023-01-06T11:17:29.331Z,63.85
2023-01-06T11:20:22.110Z,63.58
2023-01-06T11:22:49.913Z,63.33
2023-01-06T11:25:29.108Z,63.65
2023-01-06T11:28:19.515Z,63.05
2023-01-06T11:31:03.764Z,63.87
2023-01-06T11:33:35.961Z,63.61
2023-01-06T11:36:10.693Z,63.15
2023-01-06T11:38:46.183Z,63.55
2023-01-06T11:41:19.163Z,63.57
2023-01-06T11:43:49.204Z,62.09
2023-01-06T11:46:16.401Z,62.52
2023-01-06T11:48:52.204Z,62.55
2023-01-06T11:51:48.230Z,62.84
2023-01-06T11:54:40.351Z,62.14
2023-01-06T11:57:19.645Z,62.62
2023-01-06T12:00:26.217Z,62.24
2023-01-06T12:03:24.845Z,61.37
2023-01-06T12:06:12.522Z,61.87
2023-01-06T12:09:01.721Z,62.43
2023-01-06T12:11:49.699Z,63.00
2023-01-06T12:14:30.061Z,62.88
2023-01-06T12:17:13.143Z,62.57
2023-01-06T12:19:55.726Z,62.31
2023-01-06T12:22:37.997Z,63.22
2023-01-06T12:25:10.590Z,63.45
2023-01-06T12:27:52.144Z,63.09
2023-01-06T12:30:53.891Z,62.98
2023-01-06T12:33:41.957Z,62.26
2023-01-06T12:36:23.614Z,62.19
2023-01-06T12:39:12.293Z,60.29
2023-01-06T12:41:51.237Z,61.14
2023-01-06T12:44:53.396Z,62.05
2023-01-06T12:47:49.818Z,61.28
2023-01-06T12:50:43.320Z,61.30
2023-01-06T12:53:26.758Z,61.46
2023-01-06T12:56:28.331Z,60.63
2023-01-06T12:59:28.716Z,59.93
2023-01-06T13:02:23.860Z,60.29
2023-01-06T13:05:06.051Z,60.05
2023-01-06T13:08:12.576Z,60.17
2023-01-06T13:10:46.709Z,60.40
2023-01-06T13:13:55.251Z,61.12
2023-01-06T13:16:42.810Z,59.74
2023-01-06T13:19:19.078Z,61.06
2023-01-06T13:21:51.062Z,59.34
2023-01-06T13:24:43.272Z,60.45
2023-01-06T13:27:37.107Z,60.01
2023-01-06T13:31:00.916Z,59.42
2023-01-06T13:33:49.359Z,59.29
2023-01-06T13:36:27.949Z,59.01
2023-01-06T13:39:10.032Z,59.30
2023-01-06T13:41:40.127Z,60.12
2023-01-06T13:44:18.990Z,60.01
2023-01-06T13:46:49.445Z,58.69
2023-01-06T13:49:17.236Z,59.43
2023-01-06T13:51:46.516Z,58.87
2023-01-06T13:54:45.601Z,58.70
2023-01-06T13:57:30.313Z,59.19
2023-01-06T14:00:12.507Z,58.91
2023-01-06T14:02:45.577Z,56.96
2023-01-06T14:05:28.092Z,57.27
2023-01-06T14:08:02.274Z,58.18
2023-01-06T14:10:40.085Z,57.74
2023-01-06T14:13:29.737Z,58.67
2023-01-06T14:16:13.136Z,58.79
2023-01-06T14:18:49.955Z,58.19
2023-01-06T14:21:29.386Z,58.52
2023-01-06T14:24:01.834Z,58.28
2023-01-06T14:27:01.625Z,58.86
2023-01-06T14:29:46.138Z,59.58
2023-01-06T14:32:22.056Z,59.45
2023-01-06T14:34:57.857Z,60.05
2023-01-06T14:37:38.689Z,60.42
2023-01-06T14:40:11.102Z,60.52
2023-01-06T14:42:43.204Z,60.62
2023-01-06T14:45:25.393Z,60.61
2023-01-06T14:48:10.055Z,60.50
2023-01-06T14:50:47.615Z,60.57
2023-01-06T14:53:38.271Z,60.91
2023-01-06T14:56:07.124Z,60.81
2023-01-06T14:58:36.688Z,61.08
2023-01-06T15:01:06.676Z,60.93
2023-01-06T15:03:34.914Z,60.79
2023-01-06T15:06:19.378Z,61.03
2023-01-06T15:08:47.325Z,61.47
2023-01-06T15:11:28.545Z,61.97
2023-01-06T15:13:56.629Z,62.05
2023-01-06T15:16:38.799Z,62.23
2023-01-06T15:19:10.075Z,62.37
2023-01-06T15:21:44.195Z,62.70
2023-01-06T15:24:25.042Z,63.07
2023-01-06T15:26:56.560Z,63.45
2023-01-06T15:29:25.462Z,63.64
2023-01-06T15:31:54.415Z,63.72
2023-01-06T15:34:39.412Z,63.70
2023-01-06T15:37:18.366Z,63.66
2023-01-06T15:39:46.802Z,63.50
2023-01-06T15:42:23.707Z,63.41
2023-01-06T15:44:59.897Z,63.75
2023-01-06T15:47:38.075Z,63.70
2023-01-06T15:50:18.493Z,63.75
2023-01-06T15:53:00.377Z,63.81
2023-01-06T15:55:43.666Z,63.99
2023-01-06T15:58:34.904Z,64.28
2023-01-06T16:01:10.630Z,64.50
2023-01-06T16:03:39.287Z,64.66
2023-01-06T16:06:16.224Z,64.84
2023-01-06T16:08:43.946Z,64.71
2023-01-06T16:11:44.019Z,64.87
2023-01-06T16:14:34.568Z,65.00
2023-01-06T16:17:16.561Z,65.19
2023-01-06T16:19:56.660Z,65.33
2023-01-06T16:22:38.194Z,65.47
2023-01-06T16:25:22.839Z,65.83
2023-01-06T16:27:52.919Z,65.90
2023-01-06T16:30:29.071Z,66.09
2023-01-06T16:32:59.758Z,66.27
2023-01-06T16:35:31.630Z,66.38
2023-01-06T16:37:59.562Z,66.58
2023-01-06T16:40:29.560Z,66.73
2023-01-06T16:43:00.677Z,66.62
2023-01-06T16:45:38.203Z,66.68
2023-01-06T16:48:06.483Z,66.83
2023-01-06T16:50:39.248Z,66.97
2023-01-06T16:53:17.790Z,66.97
2023-01-06T16:55:45.934Z,67.03
2023-01-06T16:58:22.245Z,67.09
2023-01-06T17:00:53.680Z,67.15
2023-01-06T17:03:31.261Z,67.17
2023-01-06T17:05:58.838Z,67.21
2023-01-06T17:08:32.242Z,67.19
2023-01-06T17:11:01.589Z,67.05
2023-01-06T17:13:36.182Z,66.97
2023-01-06T17:16:14.968Z,66.97
2023-01-06T17:18:59.168Z,66.88
2023-01-06T17:21:36.914Z,66.76
2023-01-06T17:24:15.035Z,66.82
2023-01-06T17:26:48.175Z,66.92
2023-01-06T17:29:20.166Z,67.04
2023-01-06T17:31:57.274Z,67.23
2023-01-06T17:34:35.562Z,67.33
2023-01-06T17:37:17.543Z,67.44
2023-01-06T17:39:47.002Z,67.40
2023-01-06T17:42:23.209Z,67.55
2023-01-06T17:44:57.046Z,67.60
2023-01-06T17:47:29.002Z,67.76
2023-01-06T17:49:59.911Z,67.81
2023-01-06T17:52:39.441Z,67.84
2023-01-06T17:55:31.381Z,67.83
2023-01-06T17:57:59.122Z,67.86
2023-01-06T18:00:34.384Z,67.77
2023-01-06T18:03:05.358Z,68.06
2023-01-06T18:05:38.409Z,68.15
2023-01-06T18:08:13.835Z,68.26
2023-01-06T18:10:50.847Z,68.30
2023-01-06T18:13:26.175Z,68.22
2023-01-06T18:15:58.626Z,68.25
2023-01-06T18:18:40.579Z,68.39
2023-01-06T18:21:16.185Z,68.45
2023-01-06T18:23:52.285Z,68.57
2023-01-06T18:26:31.092Z,68.76
2023-01-06T18:29:07.396Z,68.80
2023-01-06T18:31:38.768Z,68.94
2023-01-06T18:34:37.588Z,68.91
2023-01-06T18:37:05.746Z,68.80
2023-01-06T18:39:44.384Z,69.15
2023-01-06T18:42:31.670Z,69.20
2023-01-06T18:45:13.912Z,69.23
2023-01-06T18:47:43.792Z,69.35
2023-01-06T18:50:42.530Z,69.49
2023-01-06T18:53:19.060Z,69.75
2023-01-06T18:55:50.592Z,70.04
2023-01-06T18:58:49.715Z,70.23
2023-01-06T19:01:31.904Z,70.14
2023-01-06T19:04:22.432Z,70.08
2023-01-06T19:07:01.734Z,70.21
2023-01-06T19:09:42.628Z,70.38
2023-01-06T19:12:35.262Z,70.41
2023-01-06T19:15:20.848Z,70.54
2023-01-06T19:17:50.214Z,70.67
2023-01-06T19:20:29.828Z,71.07
2023-01-06T19:22:57.567Z,71.47
2023-01-06T19:25:42.477Z,71.86
2023-01-06T19:28:22.644Z,71.91
2023-01-06T19:30:58.972Z,72.09
2023-01-06T19:33:46.607Z,72.38
2023-01-06T19:36:43.769Z,72.61
2023-01-06T19:39:32.309Z,72.48
2023-01-06T19:42:17.290Z,72.66
2023-01-06T19:44:48.403Z,72.62
2023-01-06T19:47:30.031Z,72.50
2023-01-06T19:50:03.062Z,72.38
2023-01-06T19:52:39.896Z,72.28
2023-01-06T19:55:22.066Z,72.63
2023-01-06T19:58:00.104Z,72.75
2023-01-06T20:00:51.996Z,72.67
2023-01-06T20:03:35.700Z,72.86
2023-01-06T20:06:04.235Z,72.97
2023-01-06T20:08:31.987Z,73.06
2023-01-06T20:10:59.656Z,73.04
2023-01-06T20:13:27.272Z,73.21
2023-01-06T20:15:54.879Z,73.07
2023-01-06T20:18:22.398Z,72.89
2023-01-06T20:20:49.891Z,73.02
2023-01-06T20:23:17.846Z,72.99
2023-01-06T20:25:45.827Z,72.78
2023-01-06T20:28:13.581Z,72.58
2023-01-06T20:30:41.344Z,72.30
2023-01-06T20:33:08.993Z,72.21
2023-01-06T20:35:36.749Z,72.08
2023-01-06T20:38:04.472Z,71.82
2023-01-06T20:40:32.311Z,71.77
2023-01-06T20:42:59.918Z,71.68
2023-01-06T20:45:27.588Z,71.63
2023-01-06T20:47:55.349Z,71.63
2023-01-06T20:50:23.028Z,71.59
2023-01-06T20:52:50.661Z,71.71
2023-01-06T20:55:18.064Z,71.71
2023-01-06T20:57:45.390Z,71.95
2023-01-06T21:00:14.021Z,71.98
2023-01-06T21:02:41.581Z,72.16
2023-01-06T21:05:10.051Z,72.34
2023-01-06T21:07:37.984Z,72.44
2023-01-06T21:10:06.887Z,72.49
2023-01-06T21:12:34.738Z,72.58
2023-01-06T21:15:02.377Z,72.66
2023-01-06T21:17:30.133Z,72.78
2023-01-06T21:19:57.644Z,72.85
2023-01-06T21:22:25.325Z,72.84
2023-01-06T21:24:53.259Z,72.85
2023-01-06T21:27:20.931Z,72.84
2023-01-06T21:29:48.356Z,72.91
2023-01-06T21:32:16.038Z,72.91
2023-01-06T21:34:43.567Z,72.95
2023-01-06T21:37:10.972Z,73.07
2023-01-06T21:39:38.810Z,72.97
2023-01-06T21:42:24.828Z,73.12
2023-01-06T21:44:52.949Z,73.34
2023-01-06T21:47:20.654Z,73.47
2023-01-06T21:49:48.160Z,73.46
2023-01-06T21:52:16.725Z,73.56
2023-01-06T21:54:44.545Z,73.56
2023-01-06T21:57:12.932Z,73.56
2023-01-06T21:59:40.538Z,73.51
2023-01-06T22:02:09.218Z,73.42
2023-01-06T22:04:36.763Z,73.36
2023-01-06T22:07:08.517Z,73.38
2023-01-06T22:09:39.107Z,73.43
2023-01-06T22:12:09.276Z,73.50
2023-01-06T22:14:37.421Z,73.24
2023-01-06T22:17:05.105Z,73.18
2023-01-06T22:19:32.889Z,73.16
2023-01-06T22:22:01.350Z,73.12
2023-01-06T22:24:32.051Z,73.35
2023-01-06T22:26:59.685Z,73.58
2023-01-06T22:29:27.644Z,73.60
2023-01-06T22:32:04.710Z,73.58
2023-01-06T22:34:32.862Z,73.44
2023-01-06T22:37:00.445Z,73.12
2023-01-06T22:39:28.380Z,73.08
2023-01-06T22:41:55.910Z,73.35
2023-01-06T22:44:23.564Z,73.55
2023-01-06T22:46:51.298Z,73.29
2023-01-06T22:49:19.068Z,73.34
2023-01-06T22:51:46.887Z,73.43
2023-01-06T22:54:14.298Z,73.43
2023-01-06T22:56:42.100Z,73.33
2023-01-06T22:59:10.022Z,73.20
2023-01-06T23:01:37.478Z,73.03
2023-01-06T23:04:05.319Z,73.03
2023-01-06T23:06:33.710Z,73.06
2023-01-06T23:09:01.364Z,73.05
2023-01-06T23:11:30.748Z,73.22
2023-01-06T23:13:58.733Z,73.28
2023-01-06T23:16:28.590Z,73.38
2023-01-06T23:18:56.464Z,73.37
2023-01-06T23:21:26.801Z,73.36
2023-01-06T23:23:54.539Z,73.26
2023-01-06T23:26:34.125Z,73.33
2023-01-06T23:29:02.160Z,73.41
2023-01-06T23:31:34.658Z,73.42
2023-01-06T23:34:12.062Z,73.61
2023-01-06T23:36:40.283Z,73.59
2023-01-06T23:39:11.512Z,73.68
2023-01-06T23:41:40.237Z,73.91
2023-01-06T23:44:11.872Z,73.90
2023-01-06T23:46:39.870Z,73.88
2023-01-06T23:49:11.387Z,73.82
2023-01-06T23:51:39.990Z,73.79
2023-01-06T23:54:09.745Z,73.64
2023-01-06T23:56:38.058Z,73.58
2023-01-06T23:59:09.988Z,73.69
